createdAt,value
2022-09-25T00:01:14.859Z,19.37
2022-09-25T00:03:43.093Z,19.20
2022-09-25T00:06:16.215Z,18.63
2022-09-25T00:08:44.368Z,19.70
2022-09-25T00:11:14.050Z,20.70
2022-09-25T00:13:42.720Z,21.23
2022-09-25T00:16:12.425Z,19.83
2022-09-25T00:18:57.960Z,21.03
2022-09-25T00:21:31.654Z,20.27
2022-09-25T00:24:00.380Z,18.80
2022-09-25T00:26:30.029Z,21.00
2022-09-25T00:28:58.983Z,19.57
2022-09-25T00:31:26.765Z,19.43
2022-09-25T00:33:55.365Z,20.30
2022-09-25T00:36:23.369Z,20.80
2022-09-25T00:38:53.088Z,19.63
2022-09-25T00:41:23.485Z,21.57
2022-09-25T00:43:53.210Z,21.70
2022-09-25T00:46:23.872Z,21.27
2022-09-25T00:48:56.025Z,22.67
2022-09-25T00:51:29.021Z,21.40
2022-09-25T00:54:01.495Z,23.97
2022-09-25T00:56:32.868Z,24.50
2022-09-25T00:59:00.680Z,26.57
2022-09-25T01:01:28.832Z,25.97
2022-09-25T01:03:57.997Z,26.37
2022-09-25T01:06:27.392Z,27.70
2022-09-25T01:08:56.165Z,28.77
2022-09-25T01:11:25.158Z,30.03
2022-09-25T01:13:56.984Z,28.47
2022-09-25T01:16:32.814Z,29.40
2022-09-25T01:19:13.680Z,28.70
2022-09-25T01:21:45.512Z,31.30
2022-09-25T01:24:46.558Z,32.30
2022-09-25T01:27:36.365Z,30.10
2022-09-25T01:30:09.733Z,30.37
2022-09-25T01:32:51.543Z,34.90
2022-09-25T01:35:26.829Z,32.23
2022-09-25T01:37:59.971Z,31.90
2022-09-25T01:40:33.804Z,31.63
2022-09-25T01:43:10.729Z,28.53
2022-09-25T01:45:44.883Z,32.77
2022-09-25T01:48:15.114Z,31.87
2022-09-25T01:50:47.853Z,30.43
2022-09-25T01:53:20.735Z,26.50
2022-09-25T01:55:53.481Z,29.20
2022-09-25T01:58:27.597Z,29.70
2022-09-25T02:01:01.098Z,29.43
2022-09-25T02:03:36.430Z,31.70
2022-09-25T02:06:07.909Z,28.40
2022-09-25T02:08:40.522Z,31.77
2022-09-25T02:11:09.790Z,32.17
2022-09-25T02:13:42.223Z,30.97
2022-09-25T02:16:17.489Z,32.20
2022-09-25T02:19:03.997Z,32.57
2022-09-25T02:21:43.614Z,30.73
2022-09-25T02:24:20.350Z,35.73
2022-09-25T02:26:49.235Z,35.33
2022-09-25T02:29:17.523Z,35.57
2022-09-25T02:31:50.093Z,36.43
2022-09-25T02:34:18.541Z,34.60
2022-09-25T02:36:46.368Z,38.17
2022-09-25T02:39:18.121Z,35.97
2022-09-25T02:41:57.277Z,37.97
2022-09-25T02:44:34.770Z,36.57
2022-09-25T02:47:15.316Z,33.37
2022-09-25T02:49:52.366Z,37.63
2022-09-25T02:52:28.451Z,37.60
2022-09-25T02:55:05.300Z,36.47
2022-09-25T02:57:38.319Z,35.37
2022-09-25T03:00:08.905Z,34.73
2022-09-25T03:02:40.364Z,36.17
2022-09-25T03:05:12.568Z,31.67
2022-09-25T03:07:54.713Z,33.73
2022-09-25T03:10:24.434Z,33.00
2022-09-25T03:12:52.202Z,34.60
2022-09-25T03:15:21.294Z,32.50
2022-09-25T03:17:52.191Z,36.07
2022-09-25T03:20:20.305Z,32.67
2022-09-25T03:22:48.100Z,35.53
2022-09-25T03:25:16.926Z,35.83
2022-09-25T03:27:44.563Z,34.50
2022-09-25T03:30:13.191Z,33.70
2022-09-25T03:32:42.174Z,34.33
2022-09-25T03:35:11.774Z,33.80
2022-09-25T03:37:39.422Z,32.70
2022-09-25T03:40:08.554Z,34.80
2022-09-25T03:42:36.351Z,35.67
2022-09-25T03:45:04.441Z,32.87
2022-09-25T03:47:32.110Z,35.90
2022-09-25T03:50:00.150Z,38.30
2022-09-25T03:52:29.200Z,35.80
2022-09-25T03:54:57.588Z,37.40
2022-09-25T03:57:25.833Z,36.07
2022-09-25T03:59:54.065Z,37.33
2022-09-25T04:02:21.768Z,37.90
2022-09-25T04:04:50.725Z,36.93
2022-09-25T04:07:18.637Z,35.77
2022-09-25T04:09:47.620Z,35.83
2022-09-25T04:12:15.484Z,37.90
2022-09-25T04:14:45.250Z,38.67
2022-09-25T04:17:12.891Z,35.90
2022-09-25T04:19:40.837Z,37.30
2022-09-25T04:22:08.487Z,36.33
2022-09-25T04:24:51.408Z,36.47
2022-09-25T04:27:22.986Z,36.93
2022-09-25T04:29:51.341Z,37.10
2022-09-25T04:32:36.321Z,39.60
2022-09-25T04:35:05.072Z,40.10
2022-09-25T04:37:32.804Z,37.13
2022-09-25T04:40:00.936Z,36.33
2022-09-25T04:42:29.955Z,37.57
2022-09-25T04:44:59.790Z,37.93
2022-09-25T04:47:30.017Z,35.87
2022-09-25T04:49:58.010Z,36.47
2022-09-25T04:52:25.739Z,35.50
2022-09-25T04:54:53.726Z,36.03
2022-09-25T04:57:53.330Z,38.07
2022-09-25T05:00:19.628Z,38.23
2022-09-25T05:02:47.651Z,40.03
2022-09-25T05:05:16.206Z,37.17
2022-09-25T05:07:52.456Z,34.07
2022-09-25T05:10:21.219Z,33.07
2022-09-25T05:12:49.190Z,32.93
2022-09-25T05:15:18.938Z,38.27
2022-09-25T05:17:46.578Z,33.50
2022-09-25T05:20:14.548Z,34.17
2022-09-25T05:22:42.167Z,34.33
2022-09-25T05:25:10.722Z,37.83
2022-09-25T05:27:38.439Z,33.90
2022-09-25T05:30:08.873Z,34.47
2022-09-25T05:32:37.887Z,34.77
2022-09-25T05:35:06.857Z,32.67
2022-09-25T05:37:34.477Z,33.20
2022-09-25T05:40:02.810Z,32.20
2022-09-25T05:42:32.001Z,33.87
2022-09-25T05:45:04.916Z,33.60
2022-09-25T05:47:34.965Z,32.13
2022-09-25T05:50:04.859Z,31.70
2022-09-25T05:52:32.800Z,31.13
2022-09-25T05:55:01.178Z,31.80
2022-09-25T05:57:31.987Z,33.13
2022-09-25T06:00:00.344Z,32.33
2022-09-25T06:02:28.115Z,29.93
2022-09-25T06:04:55.807Z,26.80
2022-09-25T06:07:25.226Z,28.27
2022-09-25T06:09:52.880Z,24.87
2022-09-25T06:12:21.073Z,29.10
2022-09-25T06:14:48.825Z,28.83
2022-09-25T06:17:17.212Z,28.07
2022-09-25T06:19:44.835Z,28.20
2022-09-25T06:22:12.896Z,29.97
2022-09-25T06:24:42.323Z,28.27
2022-09-25T06:27:10.385Z,27.20
2022-09-25T06:29:38.071Z,27.80
2022-09-25T06:32:06.061Z,26.57
2022-09-25T06:34:33.711Z,27.63
2022-09-25T06:37:02.260Z,29.07
2022-09-25T06:39:33.068Z,28.73
2022-09-25T06:42:02.398Z,28.23
2022-09-25T06:44:30.061Z,26.97
2022-09-25T06:46:59.802Z,28.70
2022-09-25T06:49:27.617Z,27.07
2022-09-25T06:51:55.641Z,29.10
2022-09-25T06:54:23.287Z,27.50
2022-09-25T06:56:51.110Z,26.20
2022-09-25T06:59:20.106Z,27.83
2022-09-25T07:01:47.830Z,28.63
2022-09-25T07:04:14.970Z,24.47
2022-09-25T07:06:46.212Z,27.40
2022-09-25T07:09:14.324Z,29.60
2022-09-25T07:11:44.152Z,29.27
2022-09-25T07:14:12.008Z,27.63
2022-09-25T07:16:41.191Z,31.23
2022-09-25T07:19:10.879Z,31.40
2022-09-25T07:21:40.829Z,31.97
2022-09-25T07:24:10.195Z,32.93
2022-09-25T07:26:42.959Z,31.60
2022-09-25T07:29:14.226Z,32.00
2022-09-25T07:31:44.055Z,34.20
2022-09-25T07:34:13.296Z,33.43
2022-09-25T07:36:42.693Z,37.33
2022-09-25T07:39:16.066Z,35.30
2022-09-25T07:41:45.309Z,34.70
2022-09-25T07:44:31.628Z,34.20
2022-09-25T07:47:03.758Z,31.60
2022-09-25T07:49:34.542Z,31.33
2022-09-25T07:52:03.595Z,32.53
2022-09-25T07:54:31.537Z,32.63
2022-09-25T07:56:59.230Z,32.43
2022-09-25T07:59:27.245Z,32.50
2022-09-25T08:01:54.980Z,30.50
2022-09-25T08:04:24.120Z,31.50
2022-09-25T08:06:51.812Z,31.17
2022-09-25T08:09:19.834Z,31.30
2022-09-25T08:11:47.506Z,29.07
2022-09-25T08:14:16.169Z,26.97
2022-09-25T08:16:44.027Z,28.50
2022-09-25T08:19:12.383Z,28.63
2022-09-25T08:21:41.457Z,28.70
2022-09-25T08:24:11.062Z,28.00
2022-09-25T08:26:39.098Z,27.90
2022-09-25T08:29:09.738Z,28.97
2022-09-25T08:31:37.555Z,27.10
2022-09-25T08:34:28.122Z,28.00
2022-09-25T08:36:55.016Z,29.57
2022-09-25T08:39:23.022Z,30.33
2022-09-25T08:41:53.894Z,30.00
2022-09-25T08:44:28.874Z,28.50
2022-09-25T08:47:19.630Z,29.17
2022-09-25T08:49:52.479Z,29.37
2022-09-25T08:52:22.817Z,29.10
2022-09-25T08:54:53.076Z,29.70
2022-09-25T08:57:35.104Z,26.97
2022-09-25T09:00:06.328Z,28.60
2022-09-25T09:02:39.839Z,29.10
2022-09-25T09:05:18.507Z,27.03
2022-09-25T09:07:51.350Z,25.70
2022-09-25T09:10:30.569Z,28.80
2022-09-25T09:13:03.717Z,28.47
2022-09-25T09:15:41.577Z,25.90
2022-09-25T09:18:18.823Z,27.93
2022-09-25T09:20:53.610Z,27.10
2022-09-25T09:23:24.565Z,25.80
2022-09-25T09:26:01.350Z,24.53
2022-09-25T09:28:49.605Z,24.63
2022-09-25T09:31:23.760Z,22.80
2022-09-25T09:34:01.665Z,21.97
2022-09-25T09:36:39.270Z,23.30
2022-09-25T09:39:20.665Z,24.90
2022-09-25T09:42:01.693Z,20.00
2022-09-25T09:44:40.188Z,21.70
2022-09-25T09:47:19.300Z,20.70
2022-09-25T09:49:51.583Z,19.77
2022-09-25T09:52:23.361Z,17.63
2022-09-25T09:54:55.767Z,19.00
2022-09-25T09:57:26.468Z,16.30
2022-09-25T10:00:04.424Z,17.97
2022-09-25T10:02:39.700Z,17.80
2022-09-25T10:05:16.791Z,15.47
2022-09-25T10:07:46.101Z,15.50
2022-09-25T10:10:17.147Z,16.10
2022-09-25T10:12:48.010Z,15.20
2022-09-25T10:15:33.555Z,15.77
2022-09-25T10:18:05.221Z,16.27
2022-09-25T10:20:43.452Z,14.40
2022-09-25T10:23:25.939Z,12.20
2022-09-25T10:25:56.326Z,12.10
2022-09-25T10:28:29.142Z,13.10
2022-09-25T10:30:59.278Z,12.00
2022-09-25T10:33:29.271Z,14.20
2022-09-25T10:35:57.860Z,14.20
2022-09-25T10:38:34.432Z,12.00
2022-09-25T10:41:08.580Z,12.83
2022-09-25T10:43:36.886Z,14.60
2022-09-25T10:46:13.035Z,12.53
2022-09-25T10:48:59.707Z,13.00
2022-09-25T10:51:28.037Z,13.00
2022-09-25T10:54:13.035Z,14.10
2022-09-25T10:56:43.103Z,13.50
2022-09-25T10:59:18.768Z,13.10
2022-09-25T11:01:49.194Z,13.50
2022-09-25T11:04:20.142Z,12.87
2022-09-25T11:06:52.288Z,15.17
2022-09-25T11:09:24.134Z,13.00
2022-09-25T11:12:04.772Z,13.70
2022-09-25T11:14:35.396Z,13.73
2022-09-25T11:17:05.967Z,12.37
2022-09-25T11:19:36.107Z,13.33
2022-09-25T11:22:15.280Z,11.83
2022-09-25T11:25:01.093Z,13.80
2022-09-25T11:27:37.575Z,14.77
2022-09-25T11:30:08.160Z,14.30
2022-09-25T11:32:48.852Z,14.70
2022-09-25T11:35:33.862Z,13.63
2022-09-25T11:38:11.395Z,11.57
2022-09-25T11:41:07.578Z,11.00
2022-09-25T11:43:46.883Z,11.60
2022-09-25T11:46:23.853Z,12.90
2022-09-25T11:49:05.448Z,12.67
2022-09-25T11:51:57.173Z,12.17
2022-09-25T11:54:34.858Z,12.87
2022-09-25T11:57:08.845Z,13.10
2022-09-25T11:59:50.222Z,11.60
2022-09-25T12:02:27.205Z,11.67
2022-09-25T12:05:23.569Z,11.60
2022-09-25T12:08:12.122Z,12.17
2022-09-25T12:10:50.682Z,12.27
2022-09-25T12:13:27.957Z,12.27
2022-09-25T12:16:13.542Z,11.90
2022-09-25T12:18:57.760Z,11.50
2022-09-25T12:21:34.311Z,9.97
2022-09-25T12:24:15.063Z,15.67
2022-09-25T12:26:52.755Z,13.70
2022-09-25T12:29:45.570Z,15.40
2022-09-25T12:32:22.348Z,15.43
2022-09-25T12:35:15.821Z,14.03
2022-09-25T12:37:49.301Z,14.37
2022-09-25T12:40:24.623Z,12.73
2022-09-25T12:42:58.835Z,15.37
2022-09-25T12:45:34.510Z,13.67
2022-09-25T12:48:13.657Z,13.83
2022-09-25T12:50:52.726Z,20.57
2022-09-25T12:53:30.890Z,14.83
2022-09-25T12:56:05.360Z,18.60
2022-09-25T12:58:53.196Z,17.37
2022-09-25T13:01:26.907Z,9.57
2022-09-25T13:04:07.887Z,7.87
2022-09-25T13:06:44.933Z,7.53
2022-09-25T13:09:22.642Z,7.23
2022-09-25T13:11:57.317Z,8.27
2022-09-25T13:14:35.188Z,8.67
2022-09-25T13:17:03.837Z,7.73
2022-09-25T13:19:35.169Z,9.03
2022-09-25T13:22:06.746Z,9.20
2022-09-25T13:24:46.797Z,8.50
2022-09-25T13:27:22.158Z,5.90
2022-09-25T13:29:59.414Z,5.80
2022-09-25T13:32:31.817Z,5.60
2022-09-25T13:35:04.431Z,4.43
2022-09-25T13:37:34.233Z,5.47
2022-09-25T13:40:26.967Z,4.20
2022-09-25T13:42:55.300Z,4.53
2022-09-25T13:45:34.322Z,4.90
2022-09-25T13:48:07.950Z,5.50
2022-09-25T13:50:43.548Z,5.50
2022-09-25T13:53:21.403Z,5.53
2022-09-25T13:56:20.038Z,5.90
2022-09-25T13:59:22.436Z,5.40
2022-09-25T14:02:24.848Z,5.90
2022-09-25T14:04:52.993Z,5.53
2022-09-25T14:07:25.850Z,6.40
2022-09-25T14:09:56.954Z,5.63
2022-09-25T14:12:30.084Z,6.40
2022-09-25T14:15:02.251Z,8.50
2022-09-25T14:17:33.234Z,8.13
2022-09-25T14:20:05.995Z,8.67
2022-09-25T14:22:44.562Z,6.67
2022-09-25T14:25:28.511Z,7.97
2022-09-25T14:27:56.330Z,7.40
2022-09-25T14:30:29.170Z,6.00
2022-09-25T14:33:17.937Z,4.07
2022-09-25T14:35:55.374Z,4.67
2022-09-25T14:38:54.387Z,4.97
2022-09-25T14:41:48.146Z,4.47
2022-09-25T14:44:26.666Z,4.03
2022-09-25T14:46:56.486Z,4.30
2022-09-25T14:49:27.098Z,4.97
2022-09-25T14:51:57.016Z,4.07
2022-09-25T14:54:29.949Z,4.17
2022-09-25T14:56:59.274Z,3.93
2022-09-25T14:59:32.977Z,3.90
2022-09-25T15:02:02.988Z,3.63
2022-09-25T15:04:34.149Z,4.90
2022-09-25T15:07:10.358Z,4.13
2022-09-25T15:09:47.571Z,4.77
2022-09-25T15:12:21.879Z,4.93
2022-09-25T15:15:04.162Z,5.93
2022-09-25T15:17:32.845Z,4.73
2022-09-25T15:20:04.085Z,5.60
2022-09-25T15:22:35.229Z,5.30
2022-09-25T15:25:07.911Z,4.77
2022-09-25T15:27:42.441Z,4.63
2022-09-25T15:30:15.969Z,4.77
2022-09-25T15:32:48.013Z,6.20
2022-09-25T15:35:19.785Z,4.60
2022-09-25T15:37:48.830Z,5.93
2022-09-25T15:40:28.379Z,4.27
2022-09-25T15:42:56.890Z,4.63
2022-09-25T15:45:44.824Z,4.67
2022-09-25T15:48:28.036Z,4.77
2022-09-25T15:50:56.970Z,4.50
2022-09-25T15:53:30.247Z,5.57
2022-09-25T15:56:18.580Z,4.60
2022-09-25T15:58:51.177Z,4.40
2022-09-25T16:01:40.124Z,5.30
2022-09-25T16:04:28.339Z,5.27
2022-09-25T16:06:56.400Z,5.27
2022-09-25T16:09:34.937Z,6.07
2022-09-25T16:12:28.874Z,8.40
2022-09-25T16:14:58.257Z,7.30
2022-09-25T16:17:33.156Z,7.70
2022-09-25T16:20:08.157Z,5.83
2022-09-25T16:22:41.559Z,7.93
2022-09-25T16:25:21.971Z,7.07
2022-09-25T16:27:51.159Z,6.10
2022-09-25T16:30:22.258Z,7.00
2022-09-25T16:32:53.379Z,7.47
2022-09-25T16:35:40.638Z,7.30
2022-09-25T16:38:28.118Z,7.80
2022-09-25T16:41:05.574Z,7.47
2022-09-25T16:43:36.150Z,10.23
2022-09-25T16:46:13.941Z,7.83
2022-09-25T16:48:46.076Z,7.80
2022-09-25T16:51:21.452Z,8.00
2022-09-25T16:53:50.325Z,8.23
2022-09-25T16:56:21.665Z,8.93
2022-09-25T16:58:50.901Z,12.17
2022-09-25T17:01:19.096Z,13.20
2022-09-25T17:03:53.260Z,11.50
2022-09-25T17:06:22.441Z,12.90
2022-09-25T17:08:50.635Z,11.00
2022-09-25T17:11:20.427Z,10.37
2022-09-25T17:13:50.276Z,9.00
2022-09-25T17:16:18.114Z,9.07
2022-09-25T17:18:45.878Z,7.67
2022-09-25T17:21:16.438Z,9.47
2022-09-25T17:23:45.054Z,7.67
2022-09-25T17:26:18.442Z,6.03
2022-09-25T17:28:46.365Z,7.20
2022-09-25T17:31:20.111Z,7.50
2022-09-25T17:33:49.811Z,7.53
2022-09-25T17:36:18.243Z,7.70
2022-09-25T17:38:45.912Z,8.27
2022-09-25T17:41:19.392Z,7.07
2022-09-25T17:43:47.114Z,7.67
2022-09-25T17:46:19.171Z,7.00
2022-09-25T17:48:53.244Z,6.60
2022-09-25T17:51:24.796Z,8.93
2022-09-25T17:53:53.678Z,10.07
2022-09-25T17:56:21.787Z,11.27
2022-09-25T17:58:49.603Z,10.10
2022-09-25T18:01:22.502Z,9.47
2022-09-25T18:03:50.361Z,10.60
2022-09-25T18:06:19.500Z,12.30
2022-09-25T18:08:47.852Z,11.97
2022-09-25T18:11:16.551Z,12.23
2022-09-25T18:13:45.102Z,16.57
2022-09-25T18:16:16.505Z,13.83
2022-09-25T18:19:04.568Z,14.27
2022-09-25T18:21:50.160Z,14.40
2022-09-25T18:24:18.140Z,14.27
2022-09-25T18:26:47.058Z,13.33
2022-09-25T18:29:16.774Z,11.87
2022-09-25T18:31:45.030Z,13.30
2022-09-25T18:34:14.527Z,13.30
2022-09-25T18:36:43.038Z,12.60
2022-09-25T18:39:13.867Z,14.60
2022-09-25T18:41:45.502Z,14.73
2022-09-25T18:44:13.252Z,14.20
2022-09-25T18:46:41.587Z,16.60
2022-09-25T18:49:09.472Z,17.60
2022-09-25T18:51:38.777Z,16.57
2022-09-25T18:54:06.758Z,14.80
2022-09-25T18:56:35.278Z,15.57
2022-09-25T18:59:05.371Z,14.87
2022-09-25T19:01:33.611Z,14.67
2022-09-25T19:04:05.107Z,11.70
2022-09-25T19:06:33.691Z,10.80
2022-09-25T19:09:04.581Z,10.40
2022-09-25T19:11:32.753Z,12.83
2022-09-25T19:14:04.706Z,12.97
2022-09-25T19:16:38.099Z,11.37
2022-09-25T19:19:06.326Z,12.30
2022-09-25T19:21:34.524Z,13.67
2022-09-25T19:24:03.894Z,11.53
2022-09-25T19:26:31.925Z,13.33
2022-09-25T19:29:00.956Z,13.77
2022-09-25T19:31:30.147Z,11.30
2022-09-25T19:33:58.311Z,11.87
2022-09-25T19:36:30.814Z,10.80
2022-09-25T19:38:59.509Z,11.53
2022-09-25T19:41:30.698Z,12.10
2022-09-25T19:44:00.513Z,13.03
2022-09-25T19:46:30.064Z,11.60
2022-09-25T19:48:57.786Z,14.00
2022-09-25T19:51:27.181Z,14.80
2022-09-25T19:53:55.405Z,14.77
2022-09-25T19:56:23.596Z,15.63
2022-09-25T19:58:52.613Z,17.40
2022-09-25T20:01:24.387Z,14.33
2022-09-25T20:03:52.016Z,16.47
2022-09-25T20:06:19.969Z,16.93
2022-09-25T20:08:47.680Z,15.63
2022-09-25T20:11:18.556Z,16.00
2022-09-25T20:13:47.525Z,15.87
2022-09-25T20:16:18.941Z,16.97
2022-09-25T20:18:48.957Z,16.60
2022-09-25T20:21:17.565Z,17.23
2022-09-25T20:23:45.484Z,21.93
2022-09-25T20:26:15.666Z,19.60
2022-09-25T20:28:44.428Z,22.43
2022-09-25T20:31:14.700Z,19.07
2022-09-25T20:33:44.073Z,17.70
2022-09-25T20:36:13.893Z,18.60
2022-09-25T20:38:41.945Z,17.80
2022-09-25T20:41:12.444Z,18.07
2022-09-25T20:43:40.841Z,18.00
2022-09-25T20:46:12.755Z,16.60
2022-09-25T20:48:42.150Z,14.13
2022-09-25T20:51:14.712Z,14.03
2022-09-25T20:53:43.481Z,11.10
2022-09-25T20:56:13.145Z,13.30
2022-09-25T20:58:42.357Z,13.03
2022-09-25T21:01:12.957Z,11.13
2022-09-25T21:03:42.458Z,14.07
2022-09-25T21:06:13.942Z,17.43
2022-09-25T21:08:41.757Z,16.50
2022-09-25T21:11:11.566Z,15.73
2022-09-25T21:13:40.958Z,16.70
2022-09-25T21:16:10.500Z,14.10
2022-09-25T21:18:40.545Z,11.53
2022-09-25T21:21:12.101Z,10.63
2022-09-25T21:23:40.651Z,7.60
2022-09-25T21:26:11.409Z,9.10
2022-09-25T21:28:40.665Z,8.63
2022-09-25T21:31:10.206Z,7.90
2022-09-25T21:33:38.537Z,7.73
2022-09-25T21:36:07.332Z,8.10
2022-09-25T21:38:37.221Z,7.63
2022-09-25T21:41:07.701Z,7.20
2022-09-25T21:43:36.864Z,6.40
2022-09-25T21:46:07.818Z,7.43
2022-09-25T21:48:36.827Z,7.90
2022-09-25T21:51:07.585Z,6.80
2022-09-25T21:53:37.676Z,6.80
2022-09-25T21:56:08.185Z,7.00
2022-09-25T21:58:36.467Z,6.83
2022-09-25T22:01:06.534Z,6.97
2022-09-25T22:03:35.360Z,6.93
2022-09-25T22:06:05.323Z,6.53
2022-09-25T22:08:35.302Z,7.47
2022-09-25T22:11:05.767Z,7.90
2022-09-25T22:13:36.676Z,7.50
2022-09-25T22:16:06.805Z,8.77
2022-09-25T22:18:35.808Z,7.37
2022-09-25T22:21:03.808Z,7.97
2022-09-25T22:23:31.437Z,7.27
2022-09-25T22:26:01.648Z,7.87
2022-09-25T22:28:30.848Z,8.70
2022-09-25T22:30:58.943Z,15.90
2022-09-25T22:33:26.614Z,9.63
2022-09-25T22:36:00.012Z,8.00
2022-09-25T22:38:27.953Z,8.27
2022-09-25T22:40:56.286Z,9.30
2022-09-25T22:43:24.087Z,7.77
2022-09-25T22:45:54.614Z,7.43
2022-09-25T22:48:22.280Z,8.20
2022-09-25T22:50:57.475Z,8.40
2022-09-25T22:53:25.669Z,8.90
2022-09-25T22:55:53.477Z,7.60
2022-09-25T22:58:21.324Z,8.90
2022-09-25T23:00:53.676Z,8.70
2022-09-25T23:03:24.419Z,8.40
2022-09-25T23:05:52.530Z,7.90
2022-09-25T23:08:20.263Z,8.30
2022-09-25T23:11:06.151Z,8.00
2022-09-25T23:13:35.575Z,9.00
2022-09-25T23:16:07.696Z,8.40
2022-09-25T23:18:36.578Z,8.67
2022-09-25T23:21:05.120Z,9.00
2022-09-25T23:23:33.337Z,8.20
2022-09-25T23:26:06.457Z,8.57
2022-09-25T23:28:35.441Z,8.83
2022-09-25T23:31:09.305Z,8.23
2022-09-25T23:33:38.105Z,8.60
2022-09-25T23:36:07.794Z,8.70
2022-09-25T23:38:35.961Z,7.77
2022-09-25T23:41:13.474Z,8.20
2022-09-25T23:43:41.436Z,7.33
2022-09-25T23:46:10.877Z,7.83
2022-09-25T23:48:39.014Z,7.70
2022-09-25T23:51:07.066Z,6.80
2022-09-25T23:53:35.460Z,6.93
2022-09-25T23:56:07.336Z,5.77
2022-09-25T23:58:35.339Z,7.20
